ADDS METAR Data INFO
IDs: Format: Raw Decoded Include TAF

Data at: 1112 UTC 17 Jul 2018

KTMB 171053Z AUTO 00000KT 10SM CLR 25/23 A3010 RMK AO2 SLP192 T02500233
KTMB 170953Z AUTO 00000KT 10SM CLR 25/23 A3009 RMK AO2 SLP188 T02500233
KTMB 170853Z AUTO 00000KT 10SM CLR 25/23 A3008 RMK AO2 SLP186 T02500233 56004
KTMB 170753Z AUTO 00000KT 10SM CLR 25/23 A3008 RMK AO2 SLP187 T02500233
KTMB 170653Z AUTO 00000KT 10SM CLR 25/23 A3009 RMK AO2 SLP189 T02500233
KTMB 170553Z AUTO 00000KT 10SM CLR 26/23 A3010 RMK AO2 SLP190 T02610233 10283 20250 58001
KTMB 170453Z AUTO 00000KT 10SM CLR 25/23 A3010 RMK AO2 SLP191 T02500233 403390250
KTMB 170353Z AUTO 26004KT 10SM CLR 26/23 A3011 RMK AO2 SLP194 LAST T02560233
KTMB 170253Z 00000KT 10SM CLR 28/24 A3010 RMK AO2 SLP192 LAST T02780239 51016
KTMB 170153Z 00000KT 10SM CLR 28/24 A3009 RMK AO2 SLP189 T02780239
KTMB 170053Z 00000KT 10SM FEW035 28/23 A3008 RMK AO2 LTG DSNT W AND NW SLP185 T02780233
KTMB 162353Z 19004KT 10SM CLR 28/23 A3005 RMK AO2 SLP176 60005 T02780233 10339 20267 55004
KTMB 162253Z 16004KT 10SM CLR 28/24 A3005 RMK AO2 SLP174 P0001 T02780239
KTMB 162153Z 14004KT 10SM VCTS FEW037 SCT070 BKN110 28/24 A3006 RMK AO2 LTG DSNT N RAE2056B29E50 SLP180 P0003 T02830239
KTMB 162053Z 30009KT 10SM VCTS -RA BKN037 BKN055 27/24 A3006 RMK AO2 LTG DSNT SW AND NW RAB21 TSE1954 SLP180 ONCL LTG CG TS W MOV LTL P0001 60001 T02720239 55002
KTMB 162000Z COR 23010KT 1/2 SM VCTS BKN042 OVC060 31/23 A3005 RMK AO2 TSE1954 ONCL LTG CG TS W MOV LTL T03110228
KTMB 161953Z 15005KT 10SM TS SCT040 BKN047 OVC060 32/22 A3005 RMK AO2 TSE05B13E28B52 SLP177 ONCL LTG CG TS W MOV LTL T03170222
KTMB 161934Z 16007KT 10SM BKN047 33/23 A3005 RMK AO2 LTG DSNT SE TSE05B13E28 T03280233
KTMB 161919Z 13011G14KT 10SM TS SCT044 34/24 A3006 RMK AO2 LTG DSNT NW TSE05B13 T03390239
KTMB 161911Z 13007KT 10SM VCTS SCT044 33/23 A3006 RMK AO2 LTG DSNT N AND NW TSE05 T03330233
KTMB 161853Z 16008KT 120V180 10SM TS SCT043 33/23 A3007 RMK AO2 LTG DSNT S AND NW TSB50 SLP182 T03280228
KTMB 161842Z 15009KT 10SM VCTS SCT045 33/22 A3007 RMK AO2 LTG DSNT S-NW T03280222
KTMB 161832Z 15007KT 10SM CLR 33/23 A3008 RMK AO2 LTG DSNT SW AND NW T03280228
KTMB 161815Z 17008KT 10SM VCTS FEW038 SCT047 SCT060 33/24 A3008 RMK AO2 LTG DSNT SW-N T03280239
KTMB 161753Z 14010KT 10SM SCT042 BKN050 32/23 A3008 RMK AO2 LTG DSNT ALQDS SLP186 T03170233 10328 20272 58004
KTMB 161740Z 13006KT 10SM SCT038 BKN045 32/23 A3008 RMK AO2 LTG DSNT ALQDS T03220228
KTMB 161653Z VRB05KT 10SM VCTS BKN040 OVC050 32/23 A3008 RMK AO2 LTG DSNT W-NE SLP187 T03170228
KTMB 161553Z 18005KT 10SM SCT040 32/23 A3010 RMK AO2 SLP191 T03170228
KTMB 161453Z VRB04KT 10SM SCT034 SCT041 32/23 A3009 RMK AO2 SLP190 T03220233 51006
KTMB 161353Z 27005KT 10SM CLR 31/23 A3009 RMK AO2 SLP189 T03110233
KTMB 161253Z 17003KT 10SM CLR 29/23 A3008 RMK AO2 SLP186 T02890233
KTMB 161153Z 18003KT 10SM CLR 27/23 A3007 RMK AO2 SLP183 T02720228 10278 20267 51013
KTMB 161053Z 17003KT 10SM CLR 27/22 A3006 RMK AO2 SLP180 T02670222
KTMB 160953Z AUTO 18003KT 10SM CLR 27/22 A3005 RMK AO2 SLP174 T02670222
KTMB 160853Z AUTO 17003KT 10SM CLR 27/22 A3004 RMK AO2 SLP170 T02720217 56009
KTMB 160818Z AUTO 17003KT 10SM SCT029 27/22 A3004 RMK AO2 T02720217
KTMB 160807Z AUTO 18003KT 10SM BKN029 27/22 A3004 RMK AO2 T02720217
KTMB 160753Z AUTO 18003KT 10SM FEW029 27/22 A3004 RMK AO2 SLP172 T02670217
KTMB 160653Z AUTO 18003KT 10SM CLR 27/22 A3004 RMK AO2 SLP172 T02720217
KTMB 160553Z AUTO 16003KT 10SM CLR 28/21 A3006 RMK AO2 SLP180 T02780211 10300 20278 58000
KTMB 160453Z AUTO 00000KT 10SM CLR 28/21 A3007 RMK AO2 SLP181 T02780211 403330228
KTMB 160353Z AUTO 15004KT 10SM CLR 28/21 A3007 RMK AO2 SLP181 T02830211
KTMB 160253Z 16003KT 10SM CLR 28/21 A3006 RMK AO2 SLP180 T02830206 53015
KTMB 160153Z 15003KT 10SM CLR 29/21 A3005 RMK AO2 SLP173 T02890206
KTMB 160053Z 15004KT 10SM FEW050 29/21 A3003 RMK AO2 LTG DSNT SW SLP170 T02940206
KTMB 152353Z 15007KT 10SM CLR 30/21 A3002 RMK AO2 SLP166 T03000206 10333 20300 55000